Time;durP1;ratioP1;P1;durP2;ratioP2;P2;SDS_P1;SDS_P2;PMS_P1;PMS_P2;Temp;Humidity;BMP_temperature;BMP_pressure;BME280_temperature;BME280_humidity;BME280_pressure;Samples;Min_cycle;Max_cycle;Signal;HPM_P1;HPM_P2
2023/08/01 00:02:12;;;;;;;4.40;2.93;;;16.80;99.90;16.30;99066;;;;571967;247;24071;-83
2023/08/01 00:04:40;;;;;;;3.93;2.67;;;16.70;99.90;16.30;99062;;;;572187;247;24176;-82
2023/08/01 00:07:08;;;;;;;3.93;3.23;;;16.70;99.90;16.30;99061;;;;569709;247;24078;-83
2023/08/01 00:09:36;;;;;;;3.63;3.17;;;16.70;99.90;16.30;99047;;;;569696;247;24144;-84
2023/08/01 00:12:07;;;;;;;3.57;2.77;;;16.70;99.90;16.30;99050;;;;573820;246;24090;-84
2023/08/01 00:14:32;;;;;;;3.93;2.80;;;16.70;99.90;16.30;99040;;;;574940;246;24093;-84
2023/08/01 00:16:59;;;;;;;3.23;2.93;;;16.70;99.90;16.30;99036;;;;574086;246;24113;-84
2023/08/01 00:19:30;;;;;;;4.40;2.87;;;16.70;99.90;16.30;99038;;;;572174;247;24128;-83
2023/08/01 00:21:56;;;;;;;3.50;2.70;;;16.70;99.90;16.30;99028;;;;569565;247;24099;-82
2023/08/01 00:24:24;;;;;;;4.77;3.37;;;16.70;99.90;16.30;99031;;;;569810;247;24122;-84
2023/08/01 00:26:55;;;;;;;5.00;2.77;;;16.70;99.90;16.30;99025;;;;552624;257;24148;-82
2023/08/01 00:29:20;;;;;;;2.40;2.30;;;16.80;99.90;16.30;99027;;;;556702;254;24126;-82
2023/08/01 00:31:48;;;;;;;7.90;3.27;;;16.80;99.90;16.30;99031;;;;556516;254;24112;-83
2023/08/01 00:34:16;;;;;;;7.10;3.07;;;16.80;99.90;16.30;99030;;;;549100;258;24156;-83
2023/08/01 00:36:44;;;;;;;4.77;3.37;;;16.80;99.90;16.30;99035;;;;568866;251;26383;-83
2023/08/01 00:39:12;;;;;;;3.30;3.00;;;16.80;99.90;16.30;99036;;;;560653;252;24095;-82
2023/08/01 00:41:41;;;;;;;5.93;2.97;;;16.80;99.90;16.30;99027;;;;560552;252;24087;-84
2023/08/01 00:44:09;;;;;;;4.57;2.80;;;16.80;99.90;16.30;99028;;;;560869;252;24106;-83
2023/08/01 00:46:37;;;;;;;5.53;3.13;;;16.80;99.90;16.40;99031;;;;569308;250;24090;-83
2023/08/01 00:49:05;;;;;;;3.93;2.93;;;16.80;99.90;16.40;99027;;;;560917;252;24134;-83
2023/08/01 00:51:36;;;;;;;3.27;2.97;;;16.80;99.90;16.40;99014;;;;558014;256;24212;-83
2023/08/01 00:54:02;;;;;;;2.70;2.50;;;16.90;99.90;16.50;99020;;;;563720;254;24188;-83
2023/08/01 00:56:30;;;;;;;3.27;2.77;;;16.90;99.90;16.50;99012;;;;558717;254;25204;-82
2023/08/01 00:58:58;;;;;;;4.10;3.10;;;17.00;99.90;16.60;99019;;;;560089;252;24100;-83
2023/08/01 01:01:26;;;;;;;3.30;2.83;;;17.00;99.90;16.70;99015;;;;561452;252;24141;-81
2023/08/01 01:03:53;;;;;;;6.30;2.63;;;17.10;99.90;16.70;99002;;;;562460;251;24113;-83
2023/08/01 01:06:24;;;;;;;2.57;2.37;;;17.10;99.90;16.70;99004;;;;570933;249;24125;-82
2023/08/01 01:08:54;;;;;;;2.83;2.63;;;17.20;99.90;16.80;99006;;;;569944;251;24138;-83
2023/08/01 01:11:24;;;;;;;3.50;2.33;;;17.20;99.90;16.80;98996;;;;561778;251;24124;-83
2023/08/01 01:13:52;;;;;;;3.43;2.10;;;17.20;99.90;16.80;98991;;;;570232;251;24147;-81
2023/08/01 01:16:17;;;;;;;6.10;2.30;;;17.20;99.90;16.80;99000;;;;570734;251;24131;-83
2023/08/01 01:18:45;;;;;;;5.33;2.20;;;17.20;99.90;16.80;98984;;;;561213;252;24117;-83
2023/08/01 01:21:16;;;;;;;5.27;2.50;;;17.20;99.90;16.70;98989;;;;561453;252;24105;-83
2023/08/01 01:23:41;;;;;;;2.63;2.20;;;17.20;99.90;16.70;98984;;;;559385;252;24112;-84
2023/08/01 01:26:13;;;;;;;2.97;2.73;;;17.10;99.90;16.70;98988;;;;561110;252;24118;-84
2023/08/01 01:28:41;;;;;;;2.30;2.20;;;17.00;99.90;16.60;98979;;;;560797;252;23151;-84
2023/08/01 01:31:10;;;;;;;2.40;2.30;;;17.00;99.90;16.60;98975;;;;560748;252;24101;-83
2023/08/01 01:33:38;;;;;;;2.60;2.37;;;17.00;99.90;16.50;98968;;;;561589;252;24159;-83
2023/08/01 01:36:03;;;;;;;3.37;2.57;;;16.90;99.90;16.50;98968;;;;559869;252;24124;-81
2023/08/01 01:38:32;;;;;;;3.97;1.87;;;16.90;99.90;16.50;98960;;;;561042;252;24114;-82
2023/08/01 01:41:00;;;;;;;4.43;2.40;;;16.90;99.90;16.50;98965;;;;560956;252;24105;-83
2023/08/01 01:43:27;;;;;;;3.43;2.67;;;16.90;99.90;16.50;98961;;;;560879;252;24125;-83
2023/08/01 01:45:55;;;;;;;2.93;2.40;;;16.90;99.90;16.40;98955;;;;560584;252;24098;-82
2023/08/01 01:48:23;;;;;;;2.57;2.37;;;16.80;99.90;16.40;98953;;;;560458;252;24182;-83
2023/08/01 01:50:51;;;;;;;5.33;2.50;;;16.80;99.90;16.40;98954;;;;560579;252;24133;-82
2023/08/01 01:53:19;;;;;;;2.80;2.30;;;16.80;99.90;16.50;98959;;;;560373;252;24133;-83
2023/08/01 01:55:47;;;;;;;3.23;2.23;;;16.80;99.90;16.50;98960;;;;560601;252;24133;-82
2023/08/01 01:58:15;;;;;;;3.90;2.80;;;16.90;99.90;16.50;98951;;;;560565;252;24102;-82
2023/08/01 02:00:44;;;;;;;2.10;2.00;;;16.90;99.90;16.50;98956;;;;560490;252;24129;-83
2023/08/01 02:03:12;;;;;;;2.97;2.33;;;16.90;99.90;16.60;98948;;;;560475;252;24140;-82
2023/08/01 02:05:42;;;;;;;7.40;2.83;;;16.90;99.90;16.50;98945;;;;560904;252;24201;-82
2023/08/01 02:08:10;;;;;;;4.55;3.35;;;17.00;99.90;16.50;98941;;;;555980;252;35289;-83
2023/08/01 02:10:41;;;;;;;4.47;3.00;;;17.00;99.90;16.50;98938;;;;560836;252;24151;-83
2023/08/01 02:13:06;;;;;;;4.30;2.60;;;16.90;99.90;16.50;98939;;;;560688;252;24105;-82
2023/08/01 02:15:35;;;;;;;2.87;2.67;;;16.90;99.90;16.40;98933;;;;561707;252;24120;-81
2023/08/01 02:18:03;;;;;;;3.23;2.60;;;16.80;99.90;16.40;98937;;;;561484;252;24132;-83
2023/08/01 02:20:31;;;;;;;4.10;2.93;;;16.80;99.90;16.30;98932;;;;561317;252;24104;-82
2023/08/01 02:22:59;;;;;;;4.03;2.77;;;16.80;99.90;16.30;98933;;;;561239;252;24119;-83
2023/08/01 02:25:27;;;;;;;6.17;2.70;;;16.70;99.90;16.30;98930;;;;565231;250;24118;-83
2023/08/01 02:27:55;;;;;;;2.73;2.40;;;16.70;99.90;16.30;98937;;;;576692;244;24095;-81
2023/08/01 02:30:23;;;;;;;3.70;2.90;;;16.70;99.90;16.20;98926;;;;552707;257;24220;-83
2023/08/01 02:32:51;;;;;;;2.90;2.50;;;16.70;99.90;16.30;98923;;;;572812;247;24183;-84
2023/08/01 02:35:19;;;;;;;2.97;2.77;;;16.60;99.90;16.20;98919;;;;570438;247;24183;-84
2023/08/01 02:37:47;;;;;;;3.40;2.83;;;16.70;99.90;16.20;98923;;;;572571;247;24082;-82
2023/08/01 02:40:15;;;;;;;4.00;2.80;;;16.60;99.90;16.20;98918;;;;572351;247;24098;-82
2023/08/01 02:42:42;;;;;;;5.97;3.23;;;16.60;99.90;16.30;98921;;;;572290;247;24098;-83
2023/08/01 02:45:13;;;;;;;5.27;2.77;;;16.70;99.90;16.30;98913;;;;562191;247;24121;-82
2023/08/01 02:47:38;;;;;;;4.03;3.63;;;16.70;99.90;16.30;98913;;;;580481;247;24147;-82
2023/08/01 02:50:10;;;;;;;3.70;2.93;;;16.70;99.90;16.30;98907;;;;572044;247;24092;-82
2023/08/01 02:52:34;;;;;;;3.43;2.60;;;16.70;99.90;16.30;98904;;;;574235;247;24102;-82
2023/08/01 02:55:02;;;;;;;3.30;2.57;;;16.70;99.90;16.20;98902;;;;569340;247;24090;-82
2023/08/01 02:57:30;;;;;;;4.60;3.07;;;16.70;99.90;16.30;98897;;;;571547;243;24209;-83
2023/08/01 02:59:59;;;;;;;5.37;2.43;;;16.70;99.90;16.30;98895;;;;573450;246;24149;-83
2023/08/01 03:02:27;;;;;;;3.70;2.80;;;16.60;99.90;16.30;98898;;;;569228;247;24126;-83
2023/08/01 03:04:54;;;;;;;3.23;2.53;;;16.70;99.90;16.30;98900;;;;571431;247;24100;-82
2023/08/01 03:07:22;;;;;;;5.40;2.87;;;16.60;99.90;16.30;98896;;;;573911;246;24138;-82
2023/08/01 03:09:50;;;;;;;4.10;3.00;;;16.70;99.90;16.30;98897;;;;561821;252;24088;-84
2023/08/01 03:12:17;;;;;;;2.93;2.63;;;16.70;99.90;16.30;98886;;;;580706;246;24152;-84
2023/08/01 03:14:47;;;;;;;3.43;2.83;;;16.70;99.90;16.30;98891;;;;573549;246;24140;-83
2023/08/01 03:17:16;;;;;;;5.93;2.70;;;16.70;99.90;16.30;98885;;;;571158;247;25204;-82
2023/08/01 03:19:41;;;;;;;2.70;2.50;;;16.70;99.90;16.30;98885;;;;571444;246;24105;-82
2023/08/01 03:22:09;;;;;;;4.97;2.90;;;16.70;99.90;16.30;98884;;;;571117;247;24129;-82
2023/08/01 03:24:37;;;;;;;5.03;3.67;;;16.70;99.90;16.30;98887;;;;570434;247;24111;-84
2023/08/01 03:27:06;;;;;;;2.77;2.30;;;16.70;99.90;16.30;98887;;;;573157;247;24115;-84
2023/08/01 03:29:37;;;;;;;6.30;2.93;;;16.70;99.90;16.40;98877;;;;574812;246;24147;-84
2023/08/01 03:32:02;;;;;;;4.17;3.17;;;16.80;99.90;16.40;98879;;;;574239;246;24162;-82
2023/08/01 03:34:29;;;;;;;5.30;2.67;;;16.80;99.90;16.40;98880;;;;572298;246;24122;-85
2023/08/01 03:37:01;;;;;;;2.83;2.60;;;16.80;99.90;16.40;98874;;;;574723;246;24129;-84
2023/08/01 03:39:25;;;;;;;4.53;2.50;;;16.80;99.90;16.40;98874;;;;572720;247;24098;-84
2023/08/01 03:41:53;;;;;;;6.27;2.50;;;16.80;99.90;16.40;98872;;;;574697;246;24116;-81
2023/08/01 03:44:21;;;;;;;3.73;2.60;;;16.80;99.90;16.50;98868;;;;572486;247;24081;-83
2023/08/01 03:46:50;;;;;;;5.43;2.90;;;16.90;99.90;16.50;98868;;;;580599;245;24118;-84
2023/08/01 03:49:18;;;;;;;5.97;3.17;;;16.90;99.90;16.50;98870;;;;572074;246;24108;-84
2023/08/01 03:51:46;;;;;;;3.57;3.27;;;16.90;99.90;16.50;98871;;;;569530;247;24079;-83
2023/08/01 03:54:14;;;;;;;5.07;2.57;;;16.90;99.90;16.50;98863;;;;560958;252;24094;-84
2023/08/01 03:56:45;;;;;;;6.13;3.03;;;16.90;99.90;16.60;98860;;;;570457;247;24123;-82
2023/08/01 03:59:12;;;;;;;4.20;2.57;;;17.00;99.90;16.60;98854;;;;573355;247;24144;-80
2023/08/01 04:01:37;;;;;;;6.20;2.93;;;17.00;99.90;16.60;98856;;;;573448;247;24144;-82
2023/08/01 04:04:06;;;;;;;6.97;2.83;;;17.00;99.90;16.60;98853;;;;572858;247;24124;-83
2023/08/01 04:06:34;;;;;;;6.27;3.23;;;17.00;99.90;16.70;98845;;;;574370;246;24111;-83
2023/08/01 04:09:06;;;;;;;3.77;2.70;;;17.00;99.90;16.70;98846;;;;561810;252;24119;-82
2023/08/01 04:11:30;;;;;;;4.27;3.00;;;17.10;99.90;16.70;98846;;;;580236;247;24192;-81
2023/08/01 04:13:59;;;;;;;4.40;3.23;;;17.10;99.90;16.70;98843;;;;561658;251;24099;-81
2023/08/01 04:16:26;;;;;;;5.00;3.00;;;17.10;99.90;16.70;98850;;;;578191;247;24121;-80
2023/08/01 04:18:54;;;;;;;3.60;2.63;;;17.10;99.90;16.70;98840;;;;552731;256;24178;-83
2023/08/01 04:21:22;;;;;;;6.13;3.10;;;17.10;99.90;16.70;98846;;;;557252;254;24133;-81
2023/08/01 04:23:50;;;;;;;3.87;3.23;;;17.10;99.90;16.70;98844;;;;558214;254;24122;-84
2023/08/01 04:26:21;;;;;;;4.00;3.27;;;17.10;99.90;16.80;98844;;;;550706;258;24220;-85
2023/08/01 04:28:47;;;;;;;3.30;3.00;;;17.10;99.90;16.80;98841;;;;560263;252;24205;-80
2023/08/01 04:31:17;;;;;;;7.23;2.73;;;17.20;99.90;16.80;98842;;;;560593;252;24187;-85
2023/08/01 04:33:45;;;;;;;3.97;3.20;;;17.20;99.90;16.80;98841;;;;557429;254;24153;-82
2023/08/01 04:36:10;;;;;;;6.70;3.17;;;17.20;99.90;16.80;98841;;;;572177;245;24162;-82
2023/08/01 04:38:38;;;;;;;4.33;3.00;;;17.20;99.90;16.90;98842;;;;573285;247;24105;-81
2023/08/01 04:41:06;;;;;;;3.47;2.83;;;17.30;99.90;16.90;98841;;;;573072;247;24219;-81
2023/08/01 04:43:34;;;;;;;4.43;3.13;;;17.30;99.90;16.90;98841;;;;572904;247;24119;-82
2023/08/01 04:46:01;;;;;;;5.07;3.33;;;17.30;99.90;17.00;98832;;;;551480;257;24144;-81
2023/08/01 04:48:29;;;;;;;3.63;3.27;;;17.40;99.90;17.00;98828;;;;581024;246;24147;-82
2023/08/01 04:50:57;;;;;;;4.83;3.07;;;17.40;99.90;17.00;98834;;;;550805;256;24155;-83
2023/08/01 04:53:25;;;;;;;3.80;3.50;;;17.40;99.90;17.00;98842;;;;580780;246;24101;-82
2023/08/01 04:55:53;;;;;;;4.27;2.87;;;17.40;99.90;17.00;98834;;;;572070;247;24098;-83
2023/08/01 04:58:21;;;;;;;5.80;3.17;;;17.30;99.90;16.90;98828;;;;550567;257;24202;-82
2023/08/01 05:00:49;;;;;;;4.23;3.27;;;17.30;99.90;16.90;98824;;;;557151;254;24122;-83
2023/08/01 05:03:20;;;;;;;4.47;3.27;;;17.30;99.90;16.90;98827;;;;557193;254;24105;-83
2023/08/01 05:05:45;;;;;;;5.47;3.07;;;17.20;99.90;16.80;98823;;;;559505;251;24161;-83
2023/08/01 05:08:13;;;;;;;5.57;3.20;;;17.20;99.90;16.70;98821;;;;561227;252;24147;-82
2023/08/01 05:10:41;;;;;;;6.67;3.30;;;17.10;99.90;16.70;98830;;;;556739;254;24163;-82
2023/08/01 05:13:09;;;;;;;4.13;3.63;;;17.10;99.90;16.80;98819;;;;568397;250;24124;-84
2023/08/01 05:15:38;;;;;;;8.27;3.60;;;17.20;99.90;16.80;98822;;;;559798;253;24176;-82
2023/08/01 05:18:06;;;;;;;5.97;3.87;;;17.20;99.90;16.90;98828;;;;559924;253;24261;-83
2023/08/01 05:20:34;;;;;;;7.60;3.47;;;17.30;99.90;17.00;98818;;;;560160;253;24083;-82
2023/08/01 05:23:02;;;;;;;4.07;3.03;;;17.40;99.90;17.10;98822;;;;559913;253;24153;-81
2023/08/01 05:25:30;;;;;;;3.27;2.97;;;17.50;99.90;17.10;98818;;;;560058;253;24086;-81
2023/08/01 05:27:58;;;;;;;6.83;4.00;;;17.50;99.90;17.10;98816;;;;560177;253;24105;-85
2023/08/01 05:30:26;;;;;;;6.00;3.63;;;17.60;99.90;17.20;98810;;;;560413;253;24087;-87
2023/08/01 05:32:54;;;;;;;4.23;3.70;;;17.60;99.90;17.20;98812;;;;560056;253;24132;-81
2023/08/01 05:35:22;;;;;;;6.93;3.50;;;17.60;99.90;17.30;98818;;;;560101;253;24144;-81
2023/08/01 05:37:50;;;;;;;4.70;4.07;;;17.70;99.90;17.30;98813;;;;560032;253;24106;-82
2023/08/01 05:40:18;;;;;;;4.87;3.67;;;17.70;99.90;17.40;98813;;;;559604;253;24164;-80
2023/08/01 05:42:46;;;;;;;4.00;2.97;;;17.70;99.90;17.40;98808;;;;559656;253;24098;-84
2023/08/01 05:45:14;;;;;;;8.47;3.93;;;17.80;99.90;17.40;98801;;;;559789;253;24146;-82
2023/08/01 05:47:41;;;;;;;6.70;3.83;;;17.80;99.90;17.50;98801;;;;559716;253;24139;-83
2023/08/01 05:50:09;;;;;;;4.53;3.90;;;17.90;99.90;17.60;98803;;;;562024;251;24101;-80
2023/08/01 05:52:41;;;;;;;4.13;3.07;;;18.00;99.90;17.70;98800;;;;569544;252;24231;-84
2023/08/01 05:55:09;;;;;;;5.53;3.43;;;18.10;99.90;17.80;98805;;;;560788;253;24093;-81
2023/08/01 05:57:33;;;;;;;4.77;3.13;;;18.20;99.90;17.80;98804;;;;558864;253;24105;-80
2023/08/01 06:00:01;;;;;;;3.50;3.17;;;18.20;99.90;17.90;98805;;;;560639;253;24093;-81
2023/08/01 06:02:29;;;;;;;4.77;3.90;;;18.30;99.90;17.90;98804;;;;569204;252;24115;-81
2023/08/01 06:04:57;;;;;;;8.73;4.10;;;18.30;99.90;18.00;98805;;;;560656;253;24087;-80
2023/08/01 06:07:25;;;;;;;5.20;3.70;;;18.40;99.90;18.10;98807;;;;560651;253;24098;-81
2023/08/01 06:09:54;;;;;;;6.03;3.60;;;18.50;99.90;18.10;98801;;;;560203;253;24137;-81
2023/08/01 06:12:25;;;;;;;6.97;3.70;;;18.50;99.90;18.10;98806;;;;560078;253;24123;-78
2023/08/01 06:14:49;;;;;;;3.30;3.00;;;18.50;99.90;18.20;98800;;;;568185;250;24234;-81
2023/08/01 06:17:17;;;;;;;4.80;3.60;;;18.60;99.90;18.30;98794;;;;560444;253;24126;-80
2023/08/01 06:19:46;;;;;;;6.67;3.17;;;18.70;99.90;18.30;98797;;;;560451;253;24121;-79
2023/08/01 06:22:14;;;;;;;6.30;3.60;;;18.70;99.90;18.30;98788;;;;560031;253;24199;-81
2023/08/01 06:24:42;;;;;;;5.17;3.60;;;18.70;99.90;18.30;98781;;;;560365;253;24101;-82
2023/08/01 06:27:10;;;;;;;4.17;3.43;;;18.70;99.90;18.40;98780;;;;560232;253;23118;-82
2023/08/01 06:29:38;;;;;;;4.50;4.10;;;18.80;99.90;18.50;98781;;;;560227;253;23119;-82
2023/08/01 06:32:07;;;;;;;6.50;3.53;;;18.90;99.90;18.50;98777;;;;560119;253;24258;-81
2023/08/01 06:34:35;;;;;;;5.27;3.67;;;18.80;99.90;18.50;98772;;;;568558;253;24109;-79
2023/08/01 06:37:03;;;;;;;7.30;3.73;;;18.90;99.90;18.50;98780;;;;559862;253;24224;-81
2023/08/01 06:39:35;;;;;;;7.33;3.90;;;18.90;99.90;18.60;98772;;;;559783;253;24112;-79
2023/08/01 06:42:00;;;;;;;8.47;3.87;;;18.90;99.90;18.60;98778;;;;560110;253;24111;-83
2023/08/01 06:44:28;;;;;;;3.73;3.33;;;18.90;99.90;18.60;98774;;;;560212;253;24079;-80
2023/08/01 06:46:56;;;;;;;6.20;4.60;;;19.00;99.90;18.60;98775;;;;560162;253;24103;-81
2023/08/01 06:49:24;;;;;;;5.53;3.80;;;19.00;99.90;18.60;98772;;;;560183;253;24093;-83
2023/08/01 06:51:52;;;;;;;5.87;4.20;;;19.00;99.90;18.60;98765;;;;560275;253;23139;-81
2023/08/01 06:54:21;;;;;;;6.50;3.63;;;19.00;99.90;18.60;98760;;;;560375;253;24103;-84
2023/08/01 06:56:49;;;;;;;5.27;4.30;;;18.90;99.90;18.60;98770;;;;560090;253;24163;-83
2023/08/01 06:59:17;;;;;;;7.17;3.97;;;19.00;99.90;18.60;98762;;;;560130;252;24124;-83
2023/08/01 07:01:48;;;;;;;7.47;4.53;;;19.00;99.90;18.70;98767;;;;567757;251;24137;-81
2023/08/01 07:04:17;;;;;;;6.83;3.77;;;19.00;99.90;18.60;98757;;;;571240;247;24169;-80
2023/08/01 07:06:42;;;;;;;5.03;3.70;;;18.90;99.90;18.50;98760;;;;561748;252;24151;-81
2023/08/01 07:09:10;;;;;;;4.43;4.03;;;18.90;99.90;18.50;98757;;;;562233;251;23131;-80
2023/08/01 07:11:38;;;;;;;6.93;3.87;;;18.90;99.90;18.50;98757;;;;560757;252;24159;-81
2023/08/01 07:14:06;;;;;;;8.30;4.03;;;18.80;99.90;18.40;98750;;;;550846;257;24084;-79
2023/08/01 07:16:38;;;;;;;4.90;4.43;;;18.80;99.90;18.30;98757;;;;550981;257;24087;-81
2023/08/01 07:19:01;;;;;;;5.37;4.17;;;18.70;99.90;18.30;98755;;;;540992;262;24069;-83
2023/08/01 07:21:29;;;;;;;7.73;5.80;;;18.70;99.90;18.30;98748;;;;558904;255;23110;-81
2023/08/01 07:23:57;;;;;;;5.47;4.30;;;18.70;99.90;18.30;98746;;;;550528;257;24083;-83
2023/08/01 07:26:28;;;;;;;4.53;4.10;;;18.60;99.90;18.20;98737;;;;568762;250;24167;-84
2023/08/01 07:28:53;;;;;;;8.30;4.60;;;18.60;99.90;18.30;98750;;;;560891;252;24207;-81
2023/08/01 07:31:21;;;;;;;7.23;3.93;;;18.60;99.90;18.30;98737;;;;561134;252;24157;-82
2023/08/01 07:33:50;;;;;;;5.40;4.67;;;18.70;99.90;18.40;98739;;;;559301;252;24169;-82
2023/08/01 07:36:18;;;;;;;7.50;4.50;;;18.70;99.90;18.40;98736;;;;569395;250;24115;-83
2023/08/01 07:38:46;;;;;;;12.37;5.17;;;18.80;99.90;18.50;98730;;;;560523;253;23163;-83
2023/08/01 07:41:13;;;;;;;7.13;5.30;;;18.80;99.90;18.50;98731;;;;560435;253;24162;-84
2023/08/01 07:43:42;;;;;;;8.13;5.33;;;18.90;99.90;18.60;98727;;;;560898;253;24112;-83
2023/08/01 07:46:11;;;;;;;9.13;5.60;;;19.00;99.90;18.60;98725;;;;560808;253;24092;-82
2023/08/01 07:48:41;;;;;;;10.57;5.57;;;19.00;99.90;18.60;98724;;;;560588;253;24099;-84
2023/08/01 07:51:07;;;;;;;6.70;5.10;;;19.00;99.90;18.50;98722;;;;568850;252;24138;-83
2023/08/01 07:53:37;;;;;;;9.77;5.83;;;18.90;99.90;18.50;98712;;;;560738;253;24152;-83
2023/08/01 07:56:06;;;;;;;6.67;5.27;;;18.70;99.90;18.30;98714;;;;564685;252;24153;-81
2023/08/01 07:58:32;;;;;;;7.33;4.93;;;18.60;99.90;18.20;98710;;;;560270;252;24122;-80
2023/08/01 08:01:09;;;;;;;6.23;5.50;;;18.60;99.90;18.20;98700;;;;569009;247;24131;-80
2023/08/01 08:03:34;;;;;;;9.40;5.27;;;18.50;99.90;18.20;98702;;;;560273;253;24150;-80
2023/08/01 08:06:03;;;;;;;7.73;4.90;;;18.50;99.90;18.10;98700;;;;560292;253;23186;-82
2023/08/01 08:08:34;;;;;;;5.93;4.87;;;18.50;99.90;18.20;98700;;;;560435;253;24168;-82
2023/08/01 08:10:58;;;;;;;8.17;4.43;;;18.50;99.90;18.10;98697;;;;568516;248;23146;-79
2023/08/01 08:13:26;;;;;;;6.10;4.97;;;18.50;99.90;18.10;98698;;;;561600;252;24136;-83
2023/08/01 08:15:54;;;;;;;7.07;5.13;;;18.50;99.90;18.00;98699;;;;562232;252;23134;-79
2023/08/01 08:18:26;;;;;;;6.70;5.10;;;18.20;99.90;17.90;98702;;;;561675;252;24133;-86
2023/08/01 08:20:50;;;;;;;8.40;5.30;;;18.20;99.90;17.80;98697;;;;561181;252;24187;-82
2023/08/01 08:23:19;;;;;;;5.20;4.70;;;18.10;99.90;17.80;98707;;;;561133;252;24126;-82
2023/08/01 08:25:53;;;;;;;6.80;5.00;;;18.10;99.90;17.70;98697;;;;560829;252;24185;-81
2023/08/01 08:28:17;;;;;;;8.77;4.93;;;18.10;99.90;17.80;98700;;;;558837;251;24197;-79
2023/08/01 08:30:48;;;;;;;9.00;5.73;;;18.00;99.90;17.70;98702;;;;559492;252;24130;-79
2023/08/01 08:33:13;;;;;;;5.87;5.37;;;18.00;99.90;17.70;98698;;;;558656;252;24181;-82
2023/08/01 08:35:41;;;;;;;6.40;5.17;;;17.90;99.90;17.60;98703;;;;560007;252;24140;-83
2023/08/01 08:38:10;;;;;;;14.83;6.07;;;17.90;99.90;17.70;98697;;;;561006;252;24204;-80
2023/08/01 08:40:38;;;;;;;11.70;6.00;;;17.90;99.90;17.80;98695;;;;560978;252;24125;-83
2023/08/01 08:43:09;;;;;;;8.77;6.00;;;18.00;99.90;17.80;98698;;;;560525;252;24137;-83
2023/08/01 08:45:33;;;;;;;8.03;5.47;;;18.10;99.90;17.80;98693;;;;565458;252;24123;-83
2023/08/01 08:48:04;;;;;;;7.07;5.90;;;18.10;99.90;17.80;98692;;;;561494;253;24108;-82
2023/08/01 08:50:33;;;;;;;7.57;6.07;;;18.00;99.90;17.70;98692;;;;560213;252;24123;-82
2023/08/01 08:52:58;;;;;;;5.60;5.10;;;18.00;99.90;17.80;98686;;;;564232;253;24111;-80
2023/08/01 08:55:27;;;;;;;12.23;5.97;;;18.00;99.90;17.80;98688;;;;569204;252;23147;-82
2023/08/01 08:57:57;;;;;;;8.93;5.23;;;18.10;99.90;18.00;98691;;;;560091;252;24160;-82
2023/08/01 09:00:22;;;;;;;5.97;5.33;;;18.50;99.90;18.30;98683;;;;559981;253;24115;-81
2023/08/01 09:02:50;;;;;;;6.70;5.60;;;18.50;99.90;18.60;98678;;;;569272;251;24170;-81
2023/08/01 09:05:22;;;;;;;6.33;5.73;;;18.90;99.90;18.90;98681;;;;560771;253;24119;-83
2023/08/01 09:07:46;;;;;;;7.43;5.33;;;19.20;99.90;19.30;98676;;;;564735;251;23123;-82
2023/08/01 09:10:14;;;;;;;6.27;5.33;;;19.60;99.90;19.70;98678;;;;560550;252;24151;-79
2023/08/01 09:12:42;;;;;;;10.60;4.80;;;20.10;99.90;20.10;98675;;;;549841;258;23170;-82
2023/08/01 09:15:13;;;;;;;5.00;4.60;;;20.70;99.90;20.30;98667;;;;566575;251;24161;-80
2023/08/01 09:17:38;;;;;;;5.03;4.27;;;20.60;99.90;20.30;98666;;;;560115;253;24162;-82
2023/08/01 09:20:06;;;;;;;4.10;3.63;;;20.70;99.90;20.30;98666;;;;559438;253;23213;-80
2023/08/01 09:22:47;;;;;;;7.30;4.40;;;20.70;99.90;20.30;98664;;;;560251;253;24146;-78
2023/08/01 09:25:15;;;;;;;4.53;4.10;;;20.80;99.90;20.40;98660;;;;561681;252;24106;-82
2023/08/01 09:27:43;;;;;;;6.47;4.87;;;20.80;99.90;20.30;98658;;;;560991;251;24144;-76
2023/08/01 09:30:18;;;;;;;6.53;4.33;;;20.80;99.90;20.20;98663;;;;569356;252;23126;-77
2023/08/01 09:32:54;;;;;;;4.80;3.57;;;20.70;99.90;20.20;98657;;;;568771;251;23154;-78
2023/08/01 09:35:22;;;;;;;7.20;3.97;;;20.60;99.90;20.10;98662;;;;568629;251;23148;-77
2023/08/01 09:37:50;;;;;;;7.33;3.67;;;20.60;99.90;20.00;98655;;;;560518;252;24232;-78
2023/08/01 09:40:17;;;;;;;5.27;4.07;;;20.40;99.90;19.90;98642;;;;560391;252;24151;-77
2023/08/01 09:42:45;;;;;;;3.93;3.63;;;20.30;99.90;19.80;98650;;;;560582;250;24187;-78
2023/08/01 09:45:19;;;;;;;4.60;3.33;;;20.20;99.90;19.80;98650;;;;568516;251;23124;-77
2023/08/01 09:47:48;;;;;;;5.33;3.67;;;20.10;99.90;19.70;98651;;;;569907;251;23139;-79
2023/08/01 09:50:13;;;;;;;5.47;3.90;;;20.10;99.90;19.60;98654;;;;565892;251;24145;-77
2023/08/01 09:52:40;;;;;;;5.20;4.00;;;20.00;99.90;19.50;98650;;;;565861;252;23154;-79
2023/08/01 09:55:08;;;;;;;4.33;3.20;;;19.90;99.90;19.40;98652;;;;561296;252;23151;-78
2023/08/01 09:57:36;;;;;;;8.10;4.37;;;19.80;99.90;19.30;98645;;;;569793;248;23117;-78
2023/08/01 10:00:04;;;;;;;5.18;4.68;;;19.70;99.90;19.30;98643;;;;556527;253;35524;-78
2023/08/01 10:02:32;;;;;;;4.97;4.17;;;19.70;99.90;19.30;98646;;;;569666;250;24099;-79
2023/08/01 10:05:00;;;;;;;3.87;3.50;;;19.70;99.90;19.30;98632;;;;549256;259;23134;-81
2023/08/01 10:07:27;;;;;;;3.93;3.63;;;19.70;99.90;19.30;98642;;;;569966;252;23138;-78
2023/08/01 10:10:01;;;;;;;10.27;3.57;;;19.70;99.90;19.30;98636;;;;561795;253;24094;-79
2023/08/01 10:12:27;;;;;;;7.37;4.47;;;19.70;99.90;19.30;98641;;;;560531;253;24108;-79
2023/08/01 10:14:54;;;;;;;4.47;3.70;;;19.70;99.90;19.30;98624;;;;563453;250;23188;-81
2023/08/01 10:17:28;;;;;;;5.33;3.93;;;19.60;99.90;19.30;98623;;;;560461;252;24118;-83
2023/08/01 10:19:53;;;;;;;3.97;3.67;;;19.60;99.90;19.20;98634;;;;568287;247;25274;-84
2023/08/01 10:22:21;;;;;;;7.87;4.20;;;19.60;99.90;19.10;98633;;;;548271;257;23137;-84
2023/08/01 10:24:50;;;;;;;5.00;4.03;;;19.50;99.90;19.10;98629;;;;560788;253;24122;-85
2023/08/01 10:27:20;;;;;;;4.60;4.20;;;19.50;99.90;19.00;98627;;;;569385;250;23136;-84
2023/08/01 10:29:57;;;;;;;5.10;4.60;;;19.40;99.90;18.90;98624;;;;560647;253;24115;-84
2023/08/01 10:32:34;;;;;;;4.70;4.13;;;19.40;99.90;18.90;98626;;;;567999;252;23266;-81
2023/08/01 10:35:07;;;;;;;5.50;4.77;;;19.10;99.90;18.80;98623;;;;559540;251;24113;-82
2023/08/01 10:37:48;;;;;;;5.07;4.63;;;19.20;99.90;18.70;98618;;;;561498;252;24154;-80
2023/08/01 10:40:17;;;;;;;4.50;4.17;;;19.10;99.90;18.70;98616;;;;561382;252;24253;-77
2023/08/01 10:42:45;;;;;;;11.33;4.40;;;19.00;99.90;18.70;98612;;;;569805;251;24104;-78
2023/08/01 10:45:27;;;;;;;5.07;4.63;;;19.00;99.90;18.70;98609;;;;560963;252;24117;-78
2023/08/01 10:47:53;;;;;;;5.23;4.57;;;19.00;99.90;18.70;98607;;;;560814;252;24110;-77
2023/08/01 10:50:21;;;;;;;8.13;4.50;;;19.00;99.90;18.70;98608;;;;561059;252;24114;-78
2023/08/01 10:52:52;;;;;;;6.80;4.63;;;19.00;99.90;18.60;98606;;;;561274;252;24208;-80
2023/08/01 10:55:17;;;;;;;4.30;3.87;;;19.00;99.90;18.40;98602;;;;568755;252;23129;-79
2023/08/01 10:57:48;;;;;;;5.13;4.73;;;18.80;99.90;18.30;98602;;;;560559;252;24125;-79
2023/08/01 11:00:20;;;;;;;6.00;5.47;;;18.70;99.90;18.40;98600;;;;569060;250;24143;-81
2023/08/01 11:02:56;;;;;;;6.80;4.87;;;18.70;99.90;18.60;98601;;;;561047;252;24115;-84
2023/08/01 11:05:23;;;;;;;8.43;5.10;;;18.90;99.90;18.80;98603;;;;565617;249;24172;-84
2023/08/01 11:07:57;;;;;;;6.17;5.57;;;19.20;99.90;18.90;98594;;;;560735;252;24121;-83
2023/08/01 11:10:30;;;;;;;6.40;5.30;;;19.30;99.90;18.90;98605;;;;565456;252;24108;-85
2023/08/01 11:12:54;;;;;;;6.27;5.17;;;19.30;99.90;18.90;98593;;;;568397;252;24108;-85
2023/08/01 11:15:22;;;;;;;6.47;4.20;;;19.30;99.90;18.90;98590;;;;559532;253;24142;-80
2023/08/01 11:17:52;;;;;;;4.67;4.27;;;19.30;99.90;18.70;98587;;;;560521;253;24092;-83
2023/08/01 11:20:22;;;;;;;5.23;4.73;;;19.00;99.90;18.50;98592;;;;568655;252;24163;-81
2023/08/01 11:22:53;;;;;;;6.27;4.83;;;18.80;99.90;18.40;98580;;;;564563;252;24148;-85